createdAt,value
2018-01-27T00:01:37.832Z,90.22
2018-01-27T00:04:05.473Z,90.23
2018-01-27T00:06:33.052Z,90.17
2018-01-27T00:09:00.689Z,90.19
2018-01-27T00:26:26.084Z,88.78
2018-01-27T00:28:53.727Z,88.88
2018-01-27T00:31:22.761Z,88.73
2018-01-27T00:33:50.334Z,88.76
2018-01-27T00:36:17.917Z,88.43
2018-01-27T00:38:45.477Z,88.20
2018-01-27T00:41:13.863Z,88.19
2018-01-27T00:43:41.528Z,88.19
2018-01-27T00:46:09.302Z,88.12
2018-01-27T00:48:36.913Z,87.63
2018-01-27T00:51:04.822Z,87.81
2018-01-27T00:53:32.470Z,87.48
2018-01-27T00:56:00.050Z,87.34
2018-01-27T00:58:27.702Z,87.76
2018-01-27T01:00:55.290Z,88.12
2018-01-27T01:03:23.157Z,88.32
2018-01-27T01:05:50.740Z,88.46
2018-01-27T01:08:18.297Z,88.62
2018-01-27T01:10:45.843Z,88.74
2018-01-27T01:13:13.431Z,88.79
2018-01-27T01:15:40.985Z,88.76
2018-01-27T01:18:08.606Z,88.89
2018-01-27T01:20:36.340Z,88.77
2018-01-27T01:23:04.169Z,88.82
2018-01-27T01:25:31.956Z,88.96
2018-01-27T01:27:59.626Z,88.85
2018-01-27T01:30:27.210Z,88.43
2018-01-27T01:32:54.789Z,88.25
2018-01-27T01:35:22.376Z,88.17
2018-01-27T01:37:49.939Z,88.17
2018-01-27T01:40:17.523Z,87.59
2018-01-27T01:42:50.796Z,87.53
2018-01-27T01:45:18.340Z,87.51
2018-01-27T01:47:45.926Z,87.49
2018-01-27T01:50:13.659Z,87.70
2018-01-27T01:52:41.215Z,87.76
2018-01-27T01:55:09.233Z,87.71
2018-01-27T01:57:36.925Z,87.54
2018-01-27T02:00:04.979Z,86.82
2018-01-27T02:02:32.858Z,85.60
2018-01-27T02:05:00.395Z,84.87
2018-01-27T02:07:28.004Z,84.84
2018-01-27T02:09:55.620Z,84.86
2018-01-27T02:12:23.212Z,85.40
2018-01-27T02:14:50.798Z,86.12
2018-01-27T02:17:18.398Z,86.63
2018-01-27T02:19:46.008Z,86.77
2018-01-27T02:22:13.778Z,85.53
2018-01-27T02:24:41.499Z,84.47
2018-01-27T02:27:09.784Z,84.31
2018-01-27T02:29:37.545Z,84.47
2018-01-27T02:32:05.136Z,85.25
2018-01-27T02:34:32.791Z,85.13
2018-01-27T02:37:00.356Z,84.75
2018-01-27T02:39:27.933Z,84.39
2018-01-27T02:41:55.495Z,84.42
2018-01-27T02:44:23.158Z,84.58
2018-01-27T02:46:51.114Z,84.54
2018-01-27T02:49:19.390Z,84.52
2018-01-27T02:51:47.372Z,84.36
2018-01-27T02:54:14.948Z,84.55
2018-01-27T02:56:42.520Z,84.46
2018-01-27T02:59:10.109Z,84.59
2018-01-27T03:01:38.810Z,84.87
2018-01-27T03:04:06.391Z,84.61
2018-01-27T03:06:33.959Z,84.59
2018-01-27T03:09:01.541Z,84.45
2018-01-27T03:11:29.247Z,84.08
2018-01-27T03:13:56.918Z,84.13
2018-01-27T03:19:15.364Z,85.11
2018-01-27T03:21:42.933Z,85.59
2018-01-27T03:24:10.557Z,85.74
2018-01-27T03:26:38.103Z,86.36
2018-01-27T03:29:05.749Z,86.43
2018-01-27T03:31:33.325Z,86.44
2018-01-27T03:34:00.919Z,86.37
2018-01-27T03:36:30.772Z,85.87
2018-01-27T03:38:58.554Z,85.78
2018-01-27T03:41:26.552Z,85.73
2018-01-27T03:43:54.124Z,85.98
2018-01-27T03:46:21.741Z,85.75
2018-01-27T03:48:49.419Z,86.25
2018-01-27T03:51:17.125Z,86.33
2018-01-27T03:53:45.170Z,86.36
2018-01-27T03:56:12.761Z,86.01
2018-01-27T03:58:42.877Z,85.68
2018-01-27T04:01:10.590Z,85.54
2018-01-27T04:03:38.162Z,85.66
2018-01-27T04:06:05.746Z,85.23
2018-01-27T04:08:33.337Z,85.30
2018-01-27T04:11:00.907Z,85.13
2018-01-27T04:13:28.477Z,85.12
2018-01-27T04:15:56.010Z,85.31
2018-01-27T04:18:23.590Z,85.39
2018-01-27T04:20:51.214Z,85.39
2018-01-27T04:23:19.199Z,85.28
2018-01-27T04:25:46.785Z,85.43
2018-01-27T04:28:14.386Z,85.76
2018-01-27T04:30:41.933Z,86.05
2018-01-27T04:33:10.697Z,86.93
2018-01-27T04:35:38.319Z,87.52
2018-01-27T04:38:05.876Z,87.08
2018-01-27T04:40:33.424Z,86.45
2018-01-27T04:43:01.000Z,86.11
2018-01-27T04:45:28.572Z,86.21
2018-01-27T04:47:56.142Z,86.40
2018-01-27T04:50:23.803Z,86.69
2018-01-27T04:52:51.379Z,86.81
2018-01-27T04:55:18.936Z,86.27
2018-01-27T04:57:46.525Z,85.69
2018-01-27T05:00:14.117Z,85.72
2018-01-27T05:02:41.675Z,86.29
2018-01-27T05:05:09.590Z,86.97
2018-01-27T05:07:37.174Z,87.59
2018-01-27T05:10:04.771Z,87.96
2018-01-27T05:12:32.328Z,87.94
2018-01-27T05:14:59.925Z,87.70
2018-01-27T05:17:28.164Z,87.95
2018-01-27T05:19:55.728Z,88.25
2018-01-27T05:22:23.882Z,88.43
2018-01-27T05:24:51.461Z,88.48
2018-01-27T05:27:19.015Z,88.77
2018-01-27T05:29:46.579Z,89.06
2018-01-27T05:32:14.112Z,89.37
2018-01-27T05:34:41.708Z,89.23
2018-01-27T05:37:09.838Z,89.29
2018-01-27T05:39:37.380Z,89.55
2018-01-27T05:42:04.978Z,89.99
2018-01-27T05:44:32.524Z,90.19
2018-01-27T05:47:00.079Z,89.99
2018-01-27T05:49:27.673Z,89.64
2018-01-27T05:51:55.258Z,89.61
2018-01-27T05:54:23.504Z,89.62
2018-01-27T05:56:51.072Z,89.48
2018-01-27T05:59:18.681Z,89.42
2018-01-27T06:01:46.320Z,89.56
2018-01-27T06:04:13.904Z,89.76
2018-01-27T06:06:41.481Z,89.81
2018-01-27T06:09:09.789Z,89.93
2018-01-27T06:11:37.400Z,89.72
2018-01-27T06:14:05.012Z,89.75
2018-01-27T06:16:32.558Z,89.70
2018-01-27T06:19:00.119Z,89.84
2018-01-27T06:21:27.716Z,89.79
2018-01-27T06:23:55.338Z,89.69
2018-01-27T06:26:22.958Z,89.40
2018-01-27T06:28:50.537Z,89.54
2018-01-27T06:31:18.119Z,89.57
2018-01-27T06:33:45.683Z,89.58
2018-01-27T06:36:13.293Z,89.42
2018-01-27T06:38:40.859Z,89.60
2018-01-27T06:41:09.201Z,89.38
2018-01-27T06:43:37.047Z,89.34
2018-01-27T06:46:04.621Z,89.30
2018-01-27T06:48:32.219Z,89.27
2018-01-27T06:50:59.835Z,89.23
2018-01-27T06:53:27.380Z,88.92
2018-01-27T06:55:54.932Z,88.94
2018-01-27T06:58:23.692Z,88.85
2018-01-27T07:00:51.240Z,88.81
2018-01-27T07:03:20.069Z,88.95
2018-01-27T07:05:47.723Z,89.03
2018-01-27T07:08:15.283Z,88.93
2018-01-27T07:10:42.825Z,89.08
2018-01-27T07:13:10.541Z,89.10
2018-01-27T07:15:38.106Z,88.94
2018-01-27T07:18:08.106Z,88.86
2018-01-27T07:20:35.861Z,88.56
2018-01-27T07:23:03.478Z,88.47
2018-01-27T07:25:31.116Z,88.54
2018-01-27T07:27:59.088Z,88.67
2018-01-27T07:30:26.954Z,88.62
2018-01-27T07:32:55.530Z,88.36
2018-01-27T07:35:23.318Z,87.90
2018-01-27T07:37:50.966Z,87.14
2018-01-27T07:40:18.582Z,86.98
2018-01-27T07:42:46.152Z,87.23
2018-01-27T07:45:13.702Z,87.61
2018-01-27T07:47:41.277Z,86.77
2018-01-27T07:50:11.169Z,86.83
2018-01-27T07:52:43.936Z,86.19
2018-01-27T07:55:13.007Z,86.15
2018-01-27T07:57:40.643Z,86.37
2018-01-27T08:00:08.208Z,86.62
2018-01-27T08:02:35.765Z,87.09
2018-01-27T08:05:03.318Z,87.48
2018-01-27T08:07:30.909Z,86.86
2018-01-27T08:09:58.468Z,85.25
2018-01-27T08:12:26.937Z,84.03
2018-01-27T08:14:54.543Z,84.19
2018-01-27T08:17:22.418Z,83.99
2018-01-27T08:19:50.015Z,84.99
2018-01-27T08:22:17.593Z,84.44
2018-01-27T08:24:45.162Z,84.31
2018-01-27T08:27:13.211Z,83.58
2018-01-27T08:29:40.783Z,84.14
2018-01-27T08:32:08.376Z,84.72
2018-01-27T08:34:35.935Z,83.95
2018-01-27T08:37:03.519Z,82.94
2018-01-27T08:39:31.112Z,82.59
2018-01-27T08:41:58.674Z,82.17
2018-01-27T08:44:26.271Z,81.46
2018-01-27T08:46:53.823Z,81.32
2018-01-27T08:49:21.434Z,80.33
2018-01-27T08:51:49.066Z,80.05
2018-01-27T08:54:16.833Z,81.06
2018-01-27T08:56:44.396Z,80.90
2018-01-27T08:59:12.107Z,80.05
2018-01-27T09:01:39.701Z,79.63
2018-01-27T09:04:07.325Z,79.28
2018-01-27T09:06:34.906Z,79.06
2018-01-27T09:09:02.564Z,79.21
2018-01-27T09:11:30.149Z,79.37
2018-01-27T09:13:57.827Z,78.80
2018-01-27T09:16:26.952Z,78.65
2018-01-27T09:18:54.493Z,78.45
2018-01-27T09:21:23.015Z,78.37
2018-01-27T09:23:50.688Z,78.46
2018-01-27T09:26:18.246Z,78.07
2018-01-27T09:28:45.812Z,76.88
2018-01-27T09:31:13.581Z,76.54
2018-01-27T09:33:41.174Z,77.18
2018-01-27T09:36:08.741Z,78.48
2018-01-27T09:38:36.368Z,79.08
2018-01-27T09:41:03.924Z,78.91
2018-01-27T09:43:31.793Z,77.81
2018-01-27T09:45:59.350Z,77.36
2018-01-27T09:48:26.885Z,76.81
2018-01-27T09:50:54.489Z,77.23
2018-01-27T09:53:22.068Z,76.99
2018-01-27T09:55:49.639Z,78.43
2018-01-27T09:58:17.243Z,77.92
2018-01-27T10:00:44.808Z,77.26
2018-01-27T10:03:12.994Z,76.86
2018-01-27T10:05:41.847Z,76.37
2018-01-27T10:08:09.441Z,77.11
2018-01-27T10:10:37.004Z,77.86
2018-01-27T10:13:04.691Z,77.74
2018-01-27T10:15:33.115Z,76.67
2018-01-27T10:18:00.681Z,76.39
2018-01-27T10:20:28.350Z,77.37
2018-01-27T10:22:56.164Z,77.56
2018-01-27T10:25:23.845Z,77.71
2018-01-27T10:27:51.398Z,78.58
2018-01-27T10:30:19.148Z,78.21
2018-01-27T10:32:46.717Z,78.45
2018-01-27T10:35:14.399Z,78.92
2018-01-27T10:37:42.017Z,78.79
2018-01-27T10:40:09.569Z,77.93
2018-01-27T10:42:37.112Z,77.66
2018-01-27T10:45:05.122Z,78.04
2018-01-27T10:47:32.714Z,78.04
2018-01-27T10:50:00.263Z,79.14
2018-01-27T10:52:27.872Z,79.16
2018-01-27T10:54:55.465Z,79.61
2018-01-27T10:57:24.231Z,78.75
2018-01-27T10:59:51.830Z,78.96
2018-01-27T11:02:19.418Z,79.67
2018-01-27T11:04:46.977Z,79.50
2018-01-27T11:07:15.711Z,79.49
2018-01-27T11:09:45.051Z,79.30
2018-01-27T11:12:12.836Z,78.83
2018-01-27T11:14:41.687Z,78.37
2018-01-27T11:17:09.307Z,78.19
2018-01-27T11:19:37.608Z,79.11
2018-01-27T11:22:05.267Z,80.00
2018-01-27T11:24:32.841Z,80.03
2018-01-27T11:27:00.397Z,78.95
2018-01-27T11:29:27.995Z,78.68
2018-01-27T11:31:55.601Z,77.61
2018-01-27T11:34:23.185Z,78.45
2018-01-27T11:36:51.323Z,78.69
2018-01-27T11:39:18.891Z,79.55
2018-01-27T11:41:50.672Z,79.73
2018-01-27T11:44:18.490Z,77.69
2018-01-27T11:46:46.128Z,78.44
2018-01-27T11:49:14.037Z,79.25
2018-01-27T11:51:41.598Z,78.27
2018-01-27T11:54:14.398Z,79.19
2018-01-27T11:56:45.035Z,79.30
2018-01-27T11:59:14.771Z,77.90
2018-01-27T12:01:42.514Z,77.27
2018-01-27T12:04:10.189Z,77.31
2018-01-27T12:06:37.810Z,76.35
2018-01-27T12:09:05.931Z,75.24
2018-01-27T12:11:33.535Z,74.57
2018-01-27T12:14:01.544Z,74.07
2018-01-27T12:16:30.982Z,74.81
2018-01-27T12:18:58.592Z,73.98
2018-01-27T12:21:27.996Z,74.09
2018-01-27T12:23:55.825Z,73.64
2018-01-27T12:26:23.921Z,72.72
2018-01-27T12:28:51.564Z,69.99
2018-01-27T12:31:20.300Z,66.70
2018-01-27T12:33:47.918Z,64.41
2018-01-27T12:36:15.708Z,64.45
2018-01-27T12:38:43.431Z,62.09
2018-01-27T12:41:11.507Z,58.95
2018-01-27T12:43:39.209Z,59.76
2018-01-27T12:46:06.848Z,59.18
2018-01-27T12:48:34.473Z,59.29
2018-01-27T12:51:02.041Z,63.16
2018-01-27T12:53:29.634Z,64.03
2018-01-27T12:55:57.296Z,64.81
2018-01-27T12:58:24.863Z,63.32
2018-01-27T13:00:52.456Z,63.94
2018-01-27T13:03:20.963Z,66.27
2018-01-27T13:05:48.593Z,68.67
2018-01-27T13:08:16.220Z,70.14
2018-01-27T13:10:43.808Z,71.32
2018-01-27T13:13:12.181Z,72.95
2018-01-27T13:15:39.793Z,73.41
2018-01-27T13:18:07.437Z,72.81
2018-01-27T13:20:35.015Z,73.02
2018-01-27T13:23:02.566Z,73.07
2018-01-27T13:25:31.554Z,72.88
2018-01-27T13:27:59.161Z,71.73
2018-01-27T13:30:26.852Z,70.90
2018-01-27T13:32:54.704Z,71.02
2018-01-27T13:35:23.438Z,71.66
2018-01-27T13:37:51.509Z,72.89
2018-01-27T13:40:19.164Z,73.85
2018-01-27T13:42:46.734Z,74.34
2018-01-27T13:45:15.364Z,73.71
2018-01-27T13:47:42.944Z,74.50
2018-01-27T13:50:10.591Z,72.91
2018-01-27T13:52:38.362Z,73.47
2018-01-27T13:55:06.817Z,70.85
2018-01-27T13:57:34.564Z,70.51
2018-01-27T14:00:02.466Z,70.04
2018-01-27T14:02:30.184Z,70.33
2018-01-27T14:04:57.944Z,69.21
2018-01-27T14:07:26.437Z,67.89
2018-01-27T14:09:54.081Z,66.40
2018-01-27T14:12:22.559Z,65.33
2018-01-27T14:14:50.121Z,65.38
2018-01-27T14:17:17.819Z,65.42
2018-01-27T14:19:45.367Z,66.79
2018-01-27T14:22:12.929Z,68.46
2018-01-27T14:24:40.779Z,69.34
2018-01-27T14:27:08.649Z,69.49
2018-01-27T14:29:36.610Z,71.03
2018-01-27T14:32:04.611Z,71.25
2018-01-27T14:34:32.501Z,72.00
2018-01-27T14:37:00.155Z,73.37
2018-01-27T14:39:28.893Z,75.14
2018-01-27T14:41:56.456Z,77.19
2018-01-27T14:44:24.885Z,78.27
2018-01-27T14:46:52.465Z,78.83
2018-01-27T14:49:21.663Z,79.17
2018-01-27T14:51:51.613Z,79.91
2018-01-27T14:54:23.433Z,80.35
2018-01-27T14:56:52.440Z,80.82
2018-01-27T14:59:20.761Z,81.16
2018-01-27T15:01:48.933Z,81.14
2018-01-27T15:04:19.233Z,81.36
2018-01-27T15:06:46.840Z,81.53
2018-01-27T15:09:18.748Z,81.70
2018-01-27T15:11:46.368Z,81.75
2018-01-27T15:14:13.967Z,82.24
2018-01-27T15:16:41.691Z,82.51
2018-01-27T15:19:09.860Z,82.97
2018-01-27T15:21:40.293Z,83.52
2018-01-27T15:24:07.881Z,84.30
2018-01-27T15:26:35.473Z,84.74
2018-01-27T15:29:05.343Z,84.67
2018-01-27T15:31:33.312Z,84.83
2018-01-27T15:34:00.924Z,84.68
2018-01-27T15:36:28.606Z,85.09
2018-01-27T15:38:56.932Z,85.31
2018-01-27T15:41:26.141Z,85.20
2018-01-27T15:43:53.939Z,86.14
2018-01-27T15:46:22.500Z,86.79
2018-01-27T15:48:50.188Z,87.52
2018-01-27T15:51:17.769Z,88.02
2018-01-27T15:53:46.579Z,88.24
2018-01-27T15:56:14.633Z,88.31
2018-01-27T15:58:42.283Z,88.21
2018-01-27T16:01:11.310Z,87.79
2018-01-27T16:03:39.036Z,87.81
2018-01-27T16:06:06.693Z,88.58
2018-01-27T16:08:34.247Z,88.65
2018-01-27T16:11:01.917Z,88.81
2018-01-27T16:13:30.006Z,89.12
2018-01-27T16:15:57.661Z,89.57
2018-01-27T16:18:27.271Z,90.03
2018-01-27T16:20:54.879Z,90.19
2018-01-27T16:23:22.529Z,90.26
2018-01-27T16:25:50.080Z,90.76
2018-01-27T16:28:17.687Z,90.91
2018-01-27T16:30:45.250Z,90.97
2018-01-27T16:33:14.057Z,91.12
2018-01-27T16:35:42.631Z,91.10
2018-01-27T16:38:10.265Z,91.09
2018-01-27T16:40:37.893Z,91.26
2018-01-27T16:43:06.041Z,91.37
2018-01-27T16:45:33.636Z,91.45
2018-01-27T16:48:01.272Z,91.21
2018-01-27T16:50:30.233Z,91.36
2018-01-27T16:52:58.077Z,90.94
2018-01-27T16:55:26.081Z,90.23
2018-01-27T16:57:53.749Z,90.06
2018-01-27T17:00:21.651Z,90.19
2018-01-27T17:02:49.300Z,90.37
2018-01-27T17:05:16.927Z,90.10
2018-01-27T17:07:44.770Z,88.96
2018-01-27T17:10:12.453Z,89.02
2018-01-27T17:12:40.056Z,89.21
2018-01-27T17:15:07.855Z,88.65
2018-01-27T17:17:36.137Z,89.07
2018-01-27T17:20:03.733Z,89.39
2018-01-27T17:22:31.288Z,89.35
2018-01-27T17:24:58.871Z,89.28
2018-01-27T17:27:27.670Z,89.45
2018-01-27T17:29:55.328Z,89.64
2018-01-27T17:32:23.276Z,89.71
2018-01-27T17:34:50.889Z,89.98
2018-01-27T17:37:18.616Z,89.55
2018-01-27T17:39:46.251Z,89.32
2018-01-27T17:42:13.931Z,88.75
2018-01-27T17:44:41.490Z,88.83
2018-01-27T17:49:42.928Z,88.91
2018-01-27T17:52:10.517Z,88.79
2018-01-27T17:54:38.123Z,88.54
2018-01-27T17:57:05.999Z,88.59
2018-01-27T17:59:33.596Z,89.01
2018-01-27T18:02:01.182Z,88.97
2018-01-27T18:04:28.796Z,89.01
2018-01-27T18:06:56.441Z,88.95
2018-01-27T18:09:24.788Z,88.99
2018-01-27T18:11:52.495Z,88.70
2018-01-27T18:14:20.501Z,88.85
2018-01-27T18:16:51.469Z,88.84
2018-01-27T18:19:19.592Z,88.65
2018-01-27T18:21:47.325Z,88.90
2018-01-27T18:24:14.947Z,88.95
2018-01-27T18:26:42.515Z,89.13
2018-01-27T18:29:10.661Z,88.95
2018-01-27T18:31:38.477Z,88.75
2018-01-27T18:34:06.032Z,88.79
2018-01-27T18:36:33.605Z,88.86
2018-01-27T18:39:01.181Z,88.94
2018-01-27T18:41:29.320Z,89.19
2018-01-27T18:43:56.874Z,89.39
2018-01-27T18:46:24.442Z,89.58
2018-01-27T18:48:52.008Z,89.56
2018-01-27T18:51:20.743Z,89.51
2018-01-27T18:53:48.543Z,88.92
2018-01-27T18:56:16.097Z,88.31
2018-01-27T18:58:43.667Z,87.97
2018-01-27T19:01:11.242Z,88.52
2018-01-27T19:03:39.037Z,88.44
2018-01-27T19:06:07.108Z,88.50
2018-01-27T19:08:35.217Z,88.50
2018-01-27T19:11:02.832Z,88.43
2018-01-27T19:13:30.452Z,88.60
2018-01-27T19:15:58.001Z,88.54
2018-01-27T19:18:25.617Z,88.44
2018-01-27T19:20:53.993Z,88.52
2018-01-27T19:23:22.988Z,88.46
2018-01-27T19:25:50.612Z,88.77
2018-01-27T19:28:19.535Z,88.94
2018-01-27T19:30:47.088Z,88.93
2018-01-27T19:33:15.106Z,89.00
2018-01-27T19:35:42.708Z,88.98
2018-01-27T19:38:12.380Z,88.97
2018-01-27T19:40:41.521Z,88.88
2018-01-27T19:43:10.528Z,88.52
2018-01-27T19:45:38.233Z,88.19
2018-01-27T19:48:08.303Z,86.99
2018-01-27T19:50:35.973Z,86.76
2018-01-27T19:53:03.616Z,86.75
2018-01-27T19:55:31.206Z,86.74
2018-01-27T19:57:58.781Z,87.11
2018-01-27T20:00:26.344Z,87.02
2018-01-27T20:02:53.886Z,87.30
2018-01-27T20:05:21.569Z,87.56
2018-01-27T20:07:49.185Z,87.96
2018-01-27T20:10:16.751Z,88.24
2018-01-27T20:12:44.567Z,88.64
2018-01-27T20:15:12.529Z,88.75
2018-01-27T20:17:40.093Z,88.89
2018-01-27T20:20:07.686Z,89.02
2018-01-27T20:22:35.284Z,88.90
2018-01-27T20:25:02.879Z,88.35
2018-01-27T20:27:30.450Z,87.89
2018-01-27T20:29:58.263Z,88.18
2018-01-27T20:32:25.841Z,88.27
2018-01-27T20:34:53.414Z,88.24
2018-01-27T20:37:22.361Z,87.41
2018-01-27T20:39:50.048Z,87.59
2018-01-27T20:42:18.098Z,87.63
2018-01-27T20:44:45.769Z,87.58
2018-01-27T20:47:13.319Z,87.67
2018-01-27T20:49:40.943Z,88.26
2018-01-27T20:52:08.537Z,88.83
2018-01-27T20:54:36.192Z,89.00
2018-01-27T20:57:03.751Z,89.12
2018-01-27T20:59:31.402Z,89.05
2018-01-27T21:01:59.316Z,88.55
2018-01-27T21:04:28.463Z,88.06
2018-01-27T21:06:56.129Z,87.92
2018-01-27T21:09:24.095Z,88.03
2018-01-27T21:11:51.850Z,88.08
2018-01-27T21:14:19.436Z,87.33
2018-01-27T21:16:46.996Z,87.50
2018-01-27T21:19:14.609Z,87.43
2018-01-27T21:21:42.202Z,87.29
2018-01-27T21:24:09.921Z,87.42
2018-01-27T21:26:37.493Z,87.73
2018-01-27T21:29:05.849Z,88.26
2018-01-27T21:31:33.412Z,88.64
2018-01-27T21:34:00.959Z,88.80
2018-01-27T21:36:28.533Z,88.66
2018-01-27T21:38:56.135Z,88.49
2018-01-27T21:41:24.081Z,88.44
2018-01-27T21:43:51.662Z,87.96
2018-01-27T21:46:19.305Z,87.42
2018-01-27T21:48:46.909Z,87.37
2018-01-27T21:51:14.548Z,87.53
2018-01-27T21:53:42.131Z,87.52
2018-01-27T21:56:09.891Z,87.74
2018-01-27T21:58:37.463Z,88.01
2018-01-27T22:01:05.051Z,88.78
2018-01-27T22:03:32.475Z,89.06
2018-01-27T22:06:00.073Z,89.35
2018-01-27T22:08:27.686Z,89.33
2018-01-27T22:10:55.264Z,89.29
2018-01-27T22:13:23.411Z,89.35
2018-01-27T22:15:51.064Z,89.43
2018-01-27T22:18:18.636Z,89.54
2018-01-27T22:20:46.236Z,89.54
2018-01-27T22:23:14.240Z,89.46
2018-01-27T22:25:41.799Z,89.45
2018-01-27T22:28:09.552Z,89.63
2018-01-27T22:30:37.125Z,89.79
2018-01-27T22:33:05.355Z,89.93
2018-01-27T22:35:33.017Z,90.17
2018-01-27T22:38:00.638Z,90.49
2018-01-27T22:40:28.253Z,90.36
2018-01-27T22:42:55.935Z,90.14
2018-01-27T22:45:23.580Z,90.02
2018-01-27T22:47:51.269Z,90.08
2018-01-27T22:50:18.844Z,90.14
2018-01-27T22:52:46.425Z,90.22
2018-01-27T22:55:14.004Z,90.11
2018-01-27T22:57:41.563Z,90.19
2018-01-27T23:00:09.129Z,89.69
2018-01-27T23:02:36.727Z,89.94
2018-01-27T23:05:04.352Z,90.16
2018-01-27T23:07:31.925Z,90.32
2018-01-27T23:09:59.550Z,91.05
2018-01-27T23:12:27.124Z,91.15
2018-01-27T23:14:55.631Z,91.17
2018-01-27T23:17:23.278Z,90.92
2018-01-27T23:19:50.840Z,89.92
2018-01-27T23:22:18.410Z,89.39
2018-01-27T23:24:45.997Z,88.49
2018-01-27T23:27:16.002Z,88.21
2018-01-27T23:29:43.613Z,88.08
2018-01-27T23:32:11.276Z,88.11
2018-01-27T23:34:38.919Z,87.72
2018-01-27T23:37:06.541Z,87.51
2018-01-27T23:39:34.115Z,87.36
2018-01-27T23:42:01.665Z,87.34
2018-01-27T23:44:31.096Z,87.07
2018-01-27T23:46:58.689Z,87.12
2018-01-27T23:49:26.248Z,87.15
2018-01-27T23:51:53.850Z,87.10
2018-01-27T23:54:26.479Z,87.19
2018-01-27T23:56:54.074Z,87.20
2018-01-27T23:59:21.677Z,86.77
